Time;durP1;ratioP1;P1;durP2;ratioP2;P2;SDS_P1;SDS_P2;PMS_P1;PMS_P2;Temp;Humidity;BMP_temperature;BMP_pressure;BME280_temperature;BME280_humidity;BME280_pressure;Samples;Min_cycle;Max_cycle;Signal;HPM_P1;HPM_P2
2021/11/25 00:02:08;;;;;;;29.97;11.77;;;;;;;;;;5035088;28;20017;-92
2021/11/25 00:04:34;;;;;;;29.97;12.47;;;;;;;;;;5035928;28;20020;-92
2021/11/25 00:06:59;;;;;;;29.80;12.10;;;;;;;;;;5027510;28;20393;-92
2021/11/25 00:09:24;;;;;;;34.00;12.07;;;;;;;;;;5045481;28;20047;-92
2021/11/25 00:11:49;;;;;;;25.30;11.30;;;;;;;;;;5034995;28;20491;-91
2021/11/25 00:14:15;;;;;;;30.43;12.37;;;;;;;;;;5035226;28;20021;-92
2021/11/25 00:16:40;;;;;;;32.53;12.00;;;;;;;;;;5022290;28;20104;-92
2021/11/25 00:19:05;;;;;;;24.87;11.17;;;;;;;;;;5035952;28;20048;-92
2021/11/25 00:21:32;;;;;;;20.73;9.77;;;;;;;;;;5032643;28;20025;-92
2021/11/25 00:23:57;;;;;;;33.57;12.83;;;;;;;;;;5036082;28;20029;-92
2021/11/25 00:26:22;;;;;;;26.37;11.27;;;;;;;;;;5035709;28;20063;-92
2021/11/25 00:28:47;;;;;;;26.10;11.80;;;;;;;;;;5035717;28;20024;-92
2021/11/25 00:31:13;;;;;;;25.60;11.90;;;;;;;;;;5069181;28;20021;-92
2021/11/25 00:33:39;;;;;;;29.27;12.13;;;;;;;;;;5035620;28;20013;-92
2021/11/25 00:36:05;;;;;;;25.20;11.63;;;;;;;;;;5035464;28;20026;-93
2021/11/25 00:38:30;;;;;;;30.03;11.93;;;;;;;;;;5035350;28;20391;-93
2021/11/25 00:40:55;;;;;;;27.27;11.17;;;;;;;;;;5035444;28;20022;-92
2021/11/25 00:43:21;;;;;;;29.70;12.47;;;;;;;;;;5036994;28;20029;-92
2021/11/25 00:45:46;;;;;;;29.27;11.97;;;;;;;;;;5035327;28;20021;-92
2021/11/25 00:48:12;;;;;;;29.33;12.80;;;;;;;;;;5035518;28;20030;-92
2021/11/25 00:50:37;;;;;;;29.37;12.30;;;;;;;;;;5035253;28;20075;-93
2021/11/25 00:53:03;;;;;;;31.43;12.43;;;;;;;;;;5035388;28;20029;-92
2021/11/25 00:55:28;;;;;;;27.17;12.03;;;;;;;;;;5035179;28;20030;-92
2021/11/25 00:57:53;;;;;;;38.50;12.83;;;;;;;;;;5035322;28;20018;-92
2021/11/25 01:00:20;;;;;;;28.97;11.97;;;;;;;;;;5035346;28;20018;-92
2021/11/25 01:02:45;;;;;;;25.77;10.93;;;;;;;;;;5036236;28;20422;-92
2021/11/25 01:05:11;;;;;;;24.10;10.37;;;;;;;;;;5049041;28;20033;-92
2021/11/25 01:07:37;;;;;;;34.23;12.23;;;;;;;;;;5036050;28;20057;-93
2021/11/25 01:10:03;;;;;;;32.17;11.83;;;;;;;;;;5035228;28;20481;-92
2021/11/25 01:12:28;;;;;;;28.13;12.40;;;;;;;;;;5034768;28;20500;-92
2021/11/25 01:14:54;;;;;;;25.93;11.43;;;;;;;;;;5035108;28;20026;-92
2021/11/25 01:17:19;;;;;;;25.80;11.90;;;;;;;;;;5035056;28;20041;-92
2021/11/25 01:19:45;;;;;;;35.07;14.13;;;;;;;;;;5034581;28;20041;-92
2021/11/25 01:22:10;;;;;;;32.83;13.20;;;;;;;;;;5027866;28;20026;-92
2021/11/25 01:24:35;;;;;;;35.40;13.37;;;;;;;;;;5061106;28;20082;-92
2021/11/25 01:27:00;;;;;;;29.40;12.80;;;;;;;;;;5029977;28;20029;-91
2021/11/25 01:29:25;;;;;;;31.93;13.40;;;;;;;;;;5058720;28;20049;-92
2021/11/25 01:31:51;;;;;;;27.97;11.33;;;;;;;;;;5034935;28;20032;-93
2021/11/25 01:34:16;;;;;;;28.20;11.63;;;;;;;;;;5034439;28;20060;-92
2021/11/25 01:36:41;;;;;;;33.43;12.33;;;;;;;;;;5035463;28;20420;-92
2021/11/25 01:39:07;;;;;;;24.87;11.13;;;;;;;;;;5034328;28;20026;-92
2021/11/25 01:41:32;;;;;;;28.23;11.33;;;;;;;;;;5034414;28;20026;-92
2021/11/25 01:43:57;;;;;;;24.30;10.43;;;;;;;;;;5035154;28;20095;-92
2021/11/25 01:46:23;;;;;;;32.00;11.73;;;;;;;;;;5031464;28;20022;-92
2021/11/25 01:48:49;;;;;;;22.23;10.80;;;;;;;;;;5034357;28;20491;-93
2021/11/25 01:51:15;;;;;;;23.47;10.43;;;;;;;;;;5034162;28;20081;-92
2021/11/25 01:53:40;;;;;;;26.73;10.90;;;;;;;;;;5034115;28;20021;-92
2021/11/25 01:56:06;;;;;;;20.80;9.67;;;;;;;;;;5034248;28;20120;-92
2021/11/25 01:58:32;;;;;;;22.67;9.20;;;;;;;;;;5034106;28;20033;-92
2021/11/25 02:00:58;;;;;;;23.90;9.23;;;;;;;;;;5067287;28;20017;-92
2021/11/25 02:03:24;;;;;;;26.03;9.53;;;;;;;;;;5033945;28;20124;-91
2021/11/25 02:05:50;;;;;;;23.20;9.20;;;;;;;;;;5033963;28;20505;-92
2021/11/25 02:08:16;;;;;;;21.13;8.73;;;;;;;;;;5067361;28;20104;-92
2021/11/25 02:10:43;;;;;;;24.10;9.77;;;;;;;;;;5066939;28;20029;-92
2021/11/25 02:13:08;;;;;;;21.67;8.20;;;;;;;;;;5033696;28;20034;-92
2021/11/25 02:15:37;;;;;;;16.43;7.67;;;;;;;;;;5033756;28;20057;-93
2021/11/25 02:18:08;;;;;;;22.07;9.00;;;;;;;;;;5019856;28;20018;-92
2021/11/25 02:20:34;;;;;;;18.83;8.07;;;;;;;;;;5033590;28;20476;-92
2021/11/25 02:23:01;;;;;;;18.73;8.80;;;;;;;;;;5033640;28;20045;-92
2021/11/25 02:25:26;;;;;;;23.57;8.97;;;;;;;;;;5064394;28;20462;-93
2021/11/25 02:27:51;;;;;;;17.60;8.17;;;;;;;;;;5055817;28;20024;-92
2021/11/25 02:30:17;;;;;;;19.57;8.27;;;;;;;;;;5030340;28;20100;-92
2021/11/25 02:32:44;;;;;;;18.10;8.80;;;;;;;;;;5033356;28;20045;-93
2021/11/25 02:35:12;;;;;;;20.50;8.30;;;;;;;;;;5034604;28;20013;-92
2021/11/25 02:37:38;;;;;;;16.97;7.43;;;;;;;;;;5066686;28;20014;-92
2021/11/25 02:40:21;;;;;;;22.23;8.50;;;;;;;;;;5066439;28;20035;-91
2021/11/25 02:42:48;;;;;;;17.93;8.30;;;;;;;;;;5066513;28;20013;-92
2021/11/25 02:45:14;;;;;;;19.43;8.87;;;;;;;;;;5033294;28;20020;-92
2021/11/25 02:47:39;;;;;;;19.20;7.70;;;;;;;;;;5033167;28;20112;-92
2021/11/25 02:50:04;;;;;;;18.07;7.83;;;;;;;;;;5032684;28;20022;-93
2021/11/25 02:52:29;;;;;;;15.87;7.23;;;;;;;;;;5064906;28;20022;-92
2021/11/25 02:54:55;;;;;;;17.20;7.80;;;;;;;;;;5065275;28;20025;-92
2021/11/25 02:57:20;;;;;;;18.57;7.47;;;;;;;;;;5033199;28;20025;-92
2021/11/25 02:59:45;;;;;;;17.33;8.13;;;;;;;;;;5031879;28;20044;-92
2021/11/25 03:02:10;;;;;;;22.30;8.10;;;;;;;;;;5029847;28;20021;-92
2021/11/25 03:04:36;;;;;;;16.33;7.83;;;;;;;;;;5019769;28;20070;-92
2021/11/25 03:07:01;;;;;;;19.23;8.93;;;;;;;;;;5031685;28;20072;-93
2021/11/25 03:09:26;;;;;;;19.40;7.97;;;;;;;;;;5065564;28;20029;-92
2021/11/25 03:11:53;;;;;;;16.00;8.00;;;;;;;;;;5031994;28;20021;-92
2021/11/25 03:14:19;;;;;;;20.00;8.43;;;;;;;;;;5031609;28;20114;-92
2021/11/25 03:16:44;;;;;;;15.20;7.60;;;;;;;;;;5031259;28;20052;-93
2021/11/25 03:19:09;;;;;;;13.30;7.50;;;;;;;;;;5064865;28;20022;-92
2021/11/25 03:21:35;;;;;;;18.57;8.53;;;;;;;;;;5032071;28;20014;-92
2021/11/25 03:24:00;;;;;;;24.43;9.77;;;;;;;;;;5032636;28;20021;-92
2021/11/25 03:26:26;;;;;;;19.27;9.00;;;;;;;;;;5065611;28;20020;-94
2021/11/25 03:28:52;;;;;;;19.67;8.67;;;;;;;;;;5065908;28;20079;-92
2021/11/25 03:31:19;;;;;;;22.57;9.80;;;;;;;;;;5032603;28;20116;-92
2021/11/25 03:33:44;;;;;;;22.10;8.23;;;;;;;;;;5032472;28;20029;-93
2021/11/25 03:36:09;;;;;;;23.07;8.23;;;;;;;;;;5065901;28;20029;-92
2021/11/25 03:38:35;;;;;;;20.87;8.23;;;;;;;;;;5032627;28;20028;-92
2021/11/25 03:41:01;;;;;;;17.83;8.67;;;;;;;;;;5032758;28;20539;-93
2021/11/25 03:43:26;;;;;;;21.13;9.23;;;;;;;;;;5032109;28;20018;-91
2021/11/25 03:45:51;;;;;;;19.80;8.13;;;;;;;;;;5065862;28;20461;-92
2021/11/25 03:48:17;;;;;;;26.93;9.43;;;;;;;;;;5030992;28;20021;-93
2021/11/25 03:50:42;;;;;;;18.97;9.03;;;;;;;;;;5021052;28;20476;-92
2021/11/25 03:53:08;;;;;;;19.93;8.70;;;;;;;;;;5065503;28;20028;-93
2021/11/25 03:55:34;;;;;;;18.10;8.10;;;;;;;;;;5065797;28;20033;-93
2021/11/25 03:58:00;;;;;;;21.43;8.17;;;;;;;;;;5065886;28;20026;-92
2021/11/25 04:00:27;;;;;;;25.10;9.30;;;;;;;;;;5031822;28;20029;-93
2021/11/25 04:02:52;;;;;;;23.33;8.63;;;;;;;;;;5065735;28;20029;-92
2021/11/25 04:05:17;;;;;;;21.00;8.80;;;;;;;;;;5051549;28;20085;-92
2021/11/25 04:07:43;;;;;;;19.40;8.90;;;;;;;;;;5065627;28;20025;-93
2021/11/25 04:10:10;;;;;;;18.73;8.13;;;;;;;;;;5032281;28;20413;-92
2021/11/25 04:12:35;;;;;;;18.63;8.83;;;;;;;;;;5033480;28;20021;-92
2021/11/25 04:15:00;;;;;;;19.67;8.63;;;;;;;;;;5031901;28;20033;-91
2021/11/25 04:17:26;;;;;;;19.57;8.97;;;;;;;;;;5032086;28;20038;-93
2021/11/25 04:19:51;;;;;;;19.27;8.97;;;;;;;;;;5032213;28;20128;-93
2021/11/25 04:22:19;;;;;;;23.33;9.13;;;;;;;;;;5065400;28;20021;-92
2021/11/25 04:24:44;;;;;;;24.77;9.17;;;;;;;;;;5032198;28;20033;-91
2021/11/25 04:27:09;;;;;;;19.47;8.67;;;;;;;;;;5065602;28;20373;-93
2021/11/25 04:29:37;;;;;;;22.23;8.77;;;;;;;;;;5022432;28;20029;-92
2021/11/25 04:37:31;;;;;;;20.37;9.47;;;;;;;;;;5037033;28;20559;-92
2021/11/25 04:39:56;;;;;;;21.63;8.93;;;;;;;;;;5068770;28;20177;-93
2021/11/25 04:42:21;;;;;;;20.53;9.07;;;;;;;;;;5069086;28;20022;-92
2021/11/25 04:44:48;;;;;;;20.93;9.17;;;;;;;;;;5036362;28;20028;-92
2021/11/25 04:47:13;;;;;;;22.67;9.17;;;;;;;;;;5068926;28;20022;-93
2021/11/25 04:49:38;;;;;;;27.23;9.50;;;;;;;;;;5035497;28;20112;-93
2021/11/25 04:52:04;;;;;;;27.87;9.53;;;;;;;;;;5035352;28;20043;-93
2021/11/25 04:54:29;;;;;;;20.10;9.50;;;;;;;;;;5068114;28;20017;-93
2021/11/25 04:56:54;;;;;;;26.17;11.17;;;;;;;;;;5068500;28;20060;-92
2021/11/25 04:59:19;;;;;;;26.60;9.83;;;;;;;;;;5035858;28;20060;-92
2021/11/25 05:01:45;;;;;;;23.80;9.93;;;;;;;;;;5035315;28;20102;-93
2021/11/25 05:04:10;;;;;;;20.87;9.57;;;;;;;;;;5068459;28;20028;-93
2021/11/25 05:06:36;;;;;;;26.80;10.87;;;;;;;;;;5068457;28;20036;-93
2021/11/25 05:09:01;;;;;;;28.63;11.17;;;;;;;;;;5035086;28;20033;-93
2021/11/25 05:11:26;;;;;;;21.90;11.23;;;;;;;;;;5035167;28;20056;-92
2021/11/25 05:13:51;;;;;;;27.30;11.97;;;;;;;;;;5035051;28;20389;-93
2021/11/25 05:16:17;;;;;;;31.43;11.30;;;;;;;;;;5034978;28;20029;-92
2021/11/25 05:18:42;;;;;;;27.20;11.30;;;;;;;;;;5034774;28;20025;-93
2021/11/25 05:21:07;;;;;;;25.40;10.57;;;;;;;;;;5034997;28;20025;-94
2021/11/25 05:23:32;;;;;;;21.40;9.77;;;;;;;;;;5034726;28;20116;-93
2021/11/25 05:25:58;;;;;;;25.17;10.63;;;;;;;;;;5034601;28;20108;-93
2021/11/25 05:28:23;;;;;;;25.17;10.93;;;;;;;;;;5034798;28;20104;-93
2021/11/25 05:30:48;;;;;;;23.47;9.83;;;;;;;;;;5034547;28;20025;-93
2021/11/25 05:33:16;;;;;;;25.43;10.80;;;;;;;;;;5067992;28;20056;-93
2021/11/25 05:35:41;;;;;;;25.47;10.90;;;;;;;;;;5034729;28;20032;-93
2021/11/25 05:38:07;;;;;;;25.47;11.27;;;;;;;;;;5034477;28;20029;-93
2021/11/25 05:40:32;;;;;;;24.43;11.17;;;;;;;;;;5033979;28;20465;-93
2021/11/25 05:42:57;;;;;;;27.77;12.23;;;;;;;;;;5033835;28;20107;-92
2021/11/25 05:45:23;;;;;;;23.13;11.03;;;;;;;;;;5022191;28;20032;-93
2021/11/25 05:47:48;;;;;;;31.03;11.70;;;;;;;;;;5034447;28;20032;-92
2021/11/25 05:50:17;;;;;;;22.53;10.17;;;;;;;;;;5034183;28;20049;-92
2021/11/25 05:52:43;;;;;;;25.63;10.00;;;;;;;;;;5033376;28;20056;-93
2021/11/25 05:55:08;;;;;;;22.90;10.63;;;;;;;;;;5033438;28;20045;-93
2021/11/25 05:57:34;;;;;;;24.93;10.77;;;;;;;;;;5033525;28;20045;-93
2021/11/25 05:59:59;;;;;;;23.97;11.20;;;;;;;;;;5032545;28;20075;-93
2021/11/25 06:02:24;;;;;;;26.20;10.93;;;;;;;;;;5033054;28;20284;-93
2021/11/25 06:04:50;;;;;;;24.43;10.90;;;;;;;;;;5032554;28;20095;-92
2021/11/25 06:07:15;;;;;;;22.20;10.57;;;;;;;;;;5032620;28;20100;-92
2021/11/25 06:09:40;;;;;;;25.47;10.90;;;;;;;;;;5032897;28;20047;-93
2021/11/25 06:12:06;;;;;;;27.10;11.50;;;;;;;;;;5032636;28;20504;-92
2021/11/25 06:14:32;;;;;;;26.33;11.53;;;;;;;;;;5032606;28;20048;-92
2021/11/25 06:16:58;;;;;;;30.40;11.73;;;;;;;;;;5032878;28;20037;-92
2021/11/25 06:19:23;;;;;;;24.93;12.53;;;;;;;;;;5026614;28;20022;-92
2021/11/25 06:21:48;;;;;;;29.43;12.77;;;;;;;;;;5025868;28;20067;-92
2021/11/25 06:24:13;;;;;;;32.30;13.33;;;;;;;;;;5066856;28;20021;-92
2021/11/25 06:26:44;;;;;;;28.30;13.50;;;;;;;;;;5034605;28;20454;-92
2021/11/25 06:29:09;;;;;;;26.70;12.43;;;;;;;;;;5033360;28;20017;-92
2021/11/25 06:31:34;;;;;;;29.47;12.30;;;;;;;;;;5033040;28;20021;-92
2021/11/25 06:34:00;;;;;;;31.93;13.20;;;;;;;;;;5033419;28;20045;-92
2021/11/25 06:36:25;;;;;;;29.97;12.20;;;;;;;;;;5033274;28;20104;-92
2021/11/25 06:38:50;;;;;;;28.67;12.00;;;;;;;;;;5033390;28;20026;-92
2021/11/25 06:41:15;;;;;;;30.33;12.07;;;;;;;;;;5033066;28;20022;-96
2021/11/25 06:43:41;;;;;;;27.13;12.17;;;;;;;;;;5034678;28;20056;-90
2021/11/25 06:46:06;;;;;;;30.77;14.87;;;;;;;;;;5032793;28;20018;-90
2021/11/25 06:48:31;;;;;;;28.30;13.60;;;;;;;;;;5033509;28;20032;-91
2021/11/25 06:50:56;;;;;;;27.30;12.80;;;;;;;;;;5032720;28;20037;-90
2021/11/25 06:53:22;;;;;;;30.07;13.40;;;;;;;;;;5033566;28;20026;-91
2021/11/25 06:55:47;;;;;;;32.93;12.20;;;;;;;;;;5032736;28;20022;-90
2021/11/25 06:58:12;;;;;;;27.80;12.57;;;;;;;;;;5032564;28;20022;-91
2021/11/25 07:00:37;;;;;;;29.73;13.20;;;;;;;;;;5026694;28;20381;-91
2021/11/25 07:03:03;;;;;;;28.13;12.37;;;;;;;;;;5026430;28;20045;-91
2021/11/25 07:05:28;;;;;;;34.27;14.17;;;;;;;;;;5060385;28;20029;-90
2021/11/25 07:07:54;;;;;;;28.27;12.87;;;;;;;;;;5024027;28;20016;-91
2021/11/25 07:10:19;;;;;;;32.03;12.60;;;;;;;;;;5032052;28;20025;-90
2021/11/25 07:12:46;;;;;;;35.60;12.60;;;;;;;;;;5028235;28;20021;-91
2021/11/25 07:15:12;;;;;;;31.60;13.70;;;;;;;;;;5021103;28;20022;-91
2021/11/25 07:17:38;;;;;;;28.80;12.87;;;;;;;;;;5032660;28;20104;-91
2021/11/25 07:20:04;;;;;;;34.53;13.60;;;;;;;;;;5032650;28;20108;-91
2021/11/25 07:22:29;;;;;;;29.50;13.20;;;;;;;;;;5021425;28;20384;-90
2021/11/25 07:24:55;;;;;;;29.13;14.07;;;;;;;;;;5034109;28;20041;-90
2021/11/25 07:27:21;;;;;;;36.60;15.20;;;;;;;;;;5039958;28;20018;-91
2021/11/25 07:29:46;;;;;;;31.67;14.77;;;;;;;;;;5031727;28;20022;-91
2021/11/25 07:32:11;;;;;;;33.77;15.33;;;;;;;;;;5031744;28;20405;-90
2021/11/25 07:34:36;;;;;;;36.50;15.03;;;;;;;;;;5031848;28;20389;-91
2021/11/25 07:37:03;;;;;;;42.57;15.10;;;;;;;;;;5032176;28;20488;-91
2021/11/25 07:39:28;;;;;;;29.03;13.57;;;;;;;;;;5032197;28;20029;-92
2021/11/25 07:41:53;;;;;;;30.57;14.60;;;;;;;;;;5032476;28;20021;-91
2021/11/25 07:44:18;;;;;;;33.77;14.00;;;;;;;;;;5032073;28;20075;-91
2021/11/25 07:46:44;;;;;;;31.40;14.50;;;;;;;;;;5032196;28;20109;-91
2021/11/25 07:49:10;;;;;;;36.57;16.00;;;;;;;;;;5033302;28;20018;-90
2021/11/25 07:51:35;;;;;;;38.83;17.10;;;;;;;;;;5017870;28;20026;-91
2021/11/25 07:54:02;;;;;;;38.57;15.83;;;;;;;;;;5032212;28;20440;-92
2021/11/25 07:56:27;;;;;;;34.43;15.93;;;;;;;;;;5032397;28;20025;-93
2021/11/25 07:58:52;;;;;;;40.03;16.97;;;;;;;;;;5032179;28;20052;-92
2021/11/25 08:01:17;;;;;;;36.67;15.90;;;;;;;;;;5032412;28;20025;-92
2021/11/25 08:03:43;;;;;;;34.57;16.33;;;;;;;;;;5035779;28;20021;-93
2021/11/25 08:06:08;;;;;;;39.20;16.73;;;;;;;;;;5035972;28;20057;-93
2021/11/25 08:08:33;;;;;;;42.80;15.80;;;;;;;;;;5036172;28;20033;-92
2021/11/25 08:11:02;;;;;;;40.93;16.37;;;;;;;;;;5035927;28;20028;-93
2021/11/25 08:13:28;;;;;;;37.27;15.67;;;;;;;;;;5035942;28;20473;-92
2021/11/25 08:15:54;;;;;;;40.60;17.40;;;;;;;;;;5035762;28;20025;-91
2021/11/25 08:18:19;;;;;;;39.03;17.77;;;;;;;;;;5035965;28;20021;-91
2021/11/25 08:20:44;;;;;;;48.10;18.27;;;;;;;;;;5035884;28;20457;-92
2021/11/25 08:23:10;;;;;;;44.33;19.33;;;;;;;;;;5035640;28;20032;-93
2021/11/25 08:25:35;;;;;;;43.13;19.40;;;;;;;;;;5035863;28;20519;-91
2021/11/25 08:28:01;;;;;;;50.87;19.80;;;;;;;;;;5037150;28;20428;-92
2021/11/25 08:30:27;;;;;;;49.77;20.30;;;;;;;;;;5035764;28;20108;-92
2021/11/25 08:32:52;;;;;;;44.50;19.17;;;;;;;;;;5036045;28;20025;-92
2021/11/25 08:35:17;;;;;;;44.63;19.13;;;;;;;;;;5035371;28;20030;-92
2021/11/25 08:37:43;;;;;;;40.73;17.37;;;;;;;;;;5035534;28;20443;-92
2021/11/25 08:40:10;;;;;;;41.40;18.87;;;;;;;;;;5035376;28;20029;-92
2021/11/25 08:42:35;;;;;;;43.17;18.43;;;;;;;;;;5069053;28;20472;-92
2021/11/25 08:45:00;;;;;;;47.93;19.33;;;;;;;;;;5035477;28;20022;-92
2021/11/25 08:47:25;;;;;;;47.40;19.73;;;;;;;;;;5036864;28;20485;-93
2021/11/25 08:49:51;;;;;;;45.47;18.87;;;;;;;;;;5035586;28;20124;-92
2021/11/25 08:52:16;;;;;;;50.20;20.27;;;;;;;;;;5035370;28;20105;-93
2021/11/25 08:54:42;;;;;;;49.70;18.80;;;;;;;;;;5037427;28;20017;-92
2021/11/25 08:57:07;;;;;;;45.60;18.83;;;;;;;;;;5035539;28;20029;-92
2021/11/25 08:59:32;;;;;;;48.70;19.93;;;;;;;;;;5035190;28;20030;-92
2021/11/25 09:01:57;;;;;;;48.10;19.87;;;;;;;;;;5035143;28;20021;-92
2021/11/25 09:04:22;;;;;;;49.33;19.83;;;;;;;;;;5036484;28;20380;-92
2021/11/25 09:06:48;;;;;;;40.13;17.37;;;;;;;;;;5034860;28;20026;-92
2021/11/25 09:09:13;;;;;;;45.10;20.00;;;;;;;;;;5035261;28;20029;-91
2021/11/25 09:11:39;;;;;;;47.53;18.57;;;;;;;;;;5034951;28;20017;-92
2021/11/25 09:14:04;;;;;;;50.53;20.27;;;;;;;;;;5033850;28;20021;-92
2021/11/25 09:16:30;;;;;;;46.50;18.63;;;;;;;;;;5034841;28;20026;-91
2021/11/25 09:18:55;;;;;;;45.60;18.93;;;;;;;;;;5034708;28;20018;-92
2021/11/25 09:21:21;;;;;;;44.60;18.23;;;;;;;;;;5034982;28;20075;-92
2021/11/25 09:23:47;;;;;;;43.60;19.43;;;;;;;;;;5020701;28;20018;-92
2021/11/25 09:26:12;;;;;;;54.60;21.53;;;;;;;;;;5034817;28;20096;-91
2021/11/25 09:28:37;;;;;;;50.10;21.63;;;;;;;;;;5035085;28;20023;-93
2021/11/25 09:31:03;;;;;;;48.83;19.40;;;;;;;;;;5034717;28;20034;-94
2021/11/25 09:33:28;;;;;;;46.00;18.90;;;;;;;;;;5035470;28;20021;-92
2021/11/25 09:35:53;;;;;;;46.80;18.67;;;;;;;;;;5034846;28;20432;-93
2021/11/25 09:38:19;;;;;;;43.50;19.20;;;;;;;;;;5034862;28;20021;-96
2021/11/25 09:40:45;;;;;;;48.77;19.47;;;;;;;;;;5035718;28;20032;-94
2021/11/25 09:43:13;;;;;;;42.93;18.80;;;;;;;;;;5035645;28;20483;-96
2021/11/25 09:45:41;;;;;;;47.53;19.77;;;;;;;;;;5059176;28;20021;-96
2021/11/25 09:48:07;;;;;;;44.67;19.57;;;;;;;;;;5041565;28;20017;-96
2021/11/25 09:50:34;;;;;;;43.30;17.97;;;;;;;;;;5038413;28;20016;-96
2021/11/25 09:53:01;;;;;;;43.37;18.10;;;;;;;;;;5042075;28;20013;-96
2021/11/25 09:55:27;;;;;;;47.67;19.43;;;;;;;;;;5038793;28;20469;-96
2021/11/25 09:57:52;;;;;;;47.53;18.03;;;;;;;;;;5050064;28;20029;-96
2021/11/25 10:00:19;;;;;;;53.10;19.53;;;;;;;;;;5035895;28;20104;-96
2021/11/25 10:02:50;;;;;;;51.27;19.77;;;;;;;;;;5033229;28;20018;-96
2021/11/25 10:05:19;;;;;;;47.50;19.27;;;;;;;;;;5063703;28;20026;-96
2021/11/25 10:07:45;;;;;;;49.50;19.43;;;;;;;;;;5040915;28;20032;-96
2021/11/25 10:10:25;;;;;;;49.57;21.43;;;;;;;;;;5049337;28;20028;-96
2021/11/25 10:12:54;;;;;;;54.63;21.43;;;;;;;;;;5040037;28;20024;-96
2021/11/25 10:15:29;;;;;;;50.70;20.53;;;;;;;;;;5026814;28;20025;-96
2021/11/25 10:17:56;;;;;;;51.53;20.53;;;;;;;;;;5041717;28;20075;-96
2021/11/25 10:20:21;;;;;;;52.63;21.90;;;;;;;;;;5041120;28;20017;-96
2021/11/25 10:23:02;;;;;;;58.90;21.50;;;;;;;;;;5040329;28;20048;-90
2021/11/25 10:25:55;;;;;;;66.83;22.23;;;;;;;;;;5032995;28;20480;-88
2021/11/25 10:28:23;;;;;;;62.73;24.17;;;;;;;;;;5030181;28;20083;-88
2021/11/25 10:30:50;;;;;;;60.17;23.47;;;;;;;;;;5032360;28;20500;-88
2021/11/25 10:33:20;;;;;;;60.80;23.63;;;;;;;;;;5033647;28;20025;-85
2021/11/25 10:35:53;;;;;;;68.30;24.47;;;;;;;;;;5032544;28;20025;-83
2021/11/25 10:40:44;;;;;;;63.87;24.40;;;;;;;;;;5033668;28;20021;-84
2021/11/25 10:43:16;;;;;;;59.63;23.97;;;;;;;;;;5032173;28;20021;-83
2021/11/25 10:45:47;;;;;;;61.33;24.83;;;;;;;;;;5028821;28;20021;-83
2021/11/25 10:48:12;;;;;;;65.83;26.63;;;;;;;;;;5061387;28;20045;-83
2021/11/25 10:50:37;;;;;;;69.90;25.77;;;;;;;;;;5026265;28;20103;-83
2021/11/25 10:53:07;;;;;;;69.83;25.20;;;;;;;;;;5031597;28;20373;-83
2021/11/25 10:55:32;;;;;;;65.67;25.07;;;;;;;;;;5029864;28;20014;-83
2021/11/25 10:58:01;;;;;;;75.33;25.17;;;;;;;;;;5032218;28;20087;-83
2021/11/25 11:00:33;;;;;;;66.67;25.00;;;;;;;;;;5031956;28;20085;-83
2021/11/25 11:03:07;;;;;;;74.28;29.08;;;;;;;;;;5032105;28;20014;-83
2021/11/25 11:05:52;;;;;;;71.47;27.77;;;;;;;;;;5031555;28;20026;-83
2021/11/25 11:08:17;;;;;;;74.10;28.43;;;;;;;;;;5031722;28;20108;-83
2021/11/25 11:11:10;;;;;;;83.47;28.07;;;;;;;;;;5031962;28;20070;-83
2021/11/25 11:13:40;;;;;;;68.43;26.40;;;;;;;;;;5029275;28;20030;-83
2021/11/25 11:18:47;;;;;;;67.87;25.97;;;;;;;;;;5032867;28;20034;-82
2021/11/25 11:21:31;;;;;;;68.57;26.67;;;;;;;;;;5047555;28;20091;-82
2021/11/25 11:23:57;;;;;;;71.57;27.40;;;;;;;;;;5030850;28;20465;-82
2021/11/25 11:26:22;;;;;;;80.43;30.10;;;;;;;;;;5030864;28;20552;-82
2021/11/25 11:28:48;;;;;;;75.77;29.20;;;;;;;;;;5031823;28;20104;-83
2021/11/25 11:31:13;;;;;;;71.00;26.23;;;;;;;;;;5030315;28;20057;-83
2021/11/25 11:33:39;;;;;;;73.43;27.47;;;;;;;;;;5030356;28;20022;-82
2021/11/25 11:36:04;;;;;;;72.13;26.83;;;;;;;;;;5030973;28;20087;-82
2021/11/25 11:38:31;;;;;;;72.93;29.13;;;;;;;;;;5037421;28;20484;-83
2021/11/25 11:40:57;;;;;;;69.50;27.70;;;;;;;;;;5037634;28;20032;-83
2021/11/25 11:43:23;;;;;;;79.60;29.17;;;;;;;;;;5036386;28;20526;-82
2021/11/25 11:45:49;;;;;;;69.77;27.60;;;;;;;;;;5037174;28;20512;-82
2021/11/25 11:48:14;;;;;;;72.67;25.77;;;;;;;;;;5037528;28;20017;-83
2021/11/25 11:50:40;;;;;;;75.77;27.97;;;;;;;;;;5037518;28;20485;-83
2021/11/25 11:53:07;;;;;;;85.40;30.50;;;;;;;;;;5037234;28;20381;-82
2021/11/25 11:55:36;;;;;;;80.50;27.63;;;;;;;;;;5038696;28;20100;-83
2021/11/25 11:58:21;;;;;;;76.87;28.37;;;;;;;;;;5037805;28;20036;-83
2021/11/25 12:00:47;;;;;;;78.57;28.97;;;;;;;;;;5025493;28;20021;-83
2021/11/25 12:03:27;;;;;;;72.70;27.83;;;;;;;;;;5037189;28;20108;-83
2021/11/25 12:05:52;;;;;;;73.70;28.53;;;;;;;;;;5042633;28;20036;-83
2021/11/25 12:08:20;;;;;;;75.97;27.77;;;;;;;;;;5037401;28;20030;-83
2021/11/25 12:10:55;;;;;;;69.27;25.53;;;;;;;;;;5037934;28;20501;-83
2021/11/25 12:13:20;;;;;;;71.53;26.43;;;;;;;;;;5037627;28;20037;-83
2021/11/25 12:15:45;;;;;;;73.33;26.27;;;;;;;;;;5038754;28;20370;-83
2021/11/25 12:18:49;;;;;;;71.50;26.10;;;;;;;;;;5068232;28;20534;-84
2021/11/25 12:21:23;;;;;;;77.97;27.83;;;;;;;;;;4997920;28;20136;-83
2021/11/25 12:23:48;;;;;;;78.20;28.87;;;;;;;;;;4997815;28;20474;-83
2021/11/25 12:26:14;;;;;;;77.20;28.97;;;;;;;;;;5010695;28;20040;-83
2021/11/25 12:28:41;;;;;;;80.80;31.33;;;;;;;;;;5037998;28;20036;-83
2021/11/25 12:31:20;;;;;;;72.33;26.57;;;;;;;;;;5037369;28;20033;-83
2021/11/25 12:33:46;;;;;;;72.00;29.30;;;;;;;;;;5037422;28;20457;-83
2021/11/25 12:36:38;;;;;;;72.17;26.83;;;;;;;;;;5037171;28;20037;-83
2021/11/25 12:39:05;;;;;;;71.67;27.03;;;;;;;;;;5034246;28;20492;-83
2021/11/25 12:41:33;;;;;;;71.33;27.23;;;;;;;;;;5037448;28;20167;-83
2021/11/25 12:43:58;;;;;;;80.87;28.70;;;;;;;;;;5037619;28;20044;-83
2021/11/25 12:46:23;;;;;;;76.23;28.37;;;;;;;;;;5037343;28;20025;-83
2021/11/25 12:48:50;;;;;;;74.97;27.57;;;;;;;;;;5035773;28;20392;-83
2021/11/25 12:51:20;;;;;;;72.97;27.50;;;;;;;;;;5035874;28;20431;-83
2021/11/25 12:53:56;;;;;;;73.63;27.47;;;;;;;;;;5034384;28;20527;-83
2021/11/25 12:56:31;;;;;;;75.93;27.57;;;;;;;;;;5034152;28;20049;-83
2021/11/25 12:58:56;;;;;;;71.63;27.63;;;;;;;;;;5039045;28;20105;-83
2021/11/25 13:01:38;;;;;;;64.47;26.50;;;;;;;;;;5042991;28;20076;-83
2021/11/25 13:04:14;;;;;;;74.97;27.80;;;;;;;;;;5034121;28;20116;-83
2021/11/25 13:06:43;;;;;;;69.83;27.97;;;;;;;;;;5047441;28;20038;-83
2021/11/25 13:09:10;;;;;;;64.80;28.23;;;;;;;;;;5026909;28;20025;-82
2021/11/25 13:11:36;;;;;;;63.97;24.97;;;;;;;;;;5033665;28;20026;-83
2021/11/25 13:14:04;;;;;;;77.73;26.90;;;;;;;;;;5033985;28;20056;-83
2021/11/25 13:16:31;;;;;;;76.10;26.97;;;;;;;;;;5033994;28;20072;-83
2021/11/25 13:19:04;;;;;;;74.80;27.43;;;;;;;;;;5034505;28;20034;-83
2021/11/25 13:21:31;;;;;;;71.07;25.33;;;;;;;;;;5033084;28;20385;-83
2021/11/25 13:23:57;;;;;;;64.47;25.80;;;;;;;;;;5031994;28;20793;-83
2021/11/25 13:26:22;;;;;;;70.10;26.80;;;;;;;;;;5032469;28;20056;-83
2021/11/25 13:28:48;;;;;;;64.47;24.50;;;;;;;;;;5033032;28;20389;-83
2021/11/25 13:31:15;;;;;;;59.53;23.43;;;;;;;;;;5043410;28;20026;-83
2021/11/25 13:33:53;;;;;;;65.97;24.47;;;;;;;;;;5046702;28;20076;-83
2021/11/25 13:36:19;;;;;;;62.07;25.33;;;;;;;;;;5043441;28;20029;-83
2021/11/25 13:38:48;;;;;;;58.93;24.70;;;;;;;;;;5032556;28;20117;-83
2021/11/25 13:41:13;;;;;;;64.10;24.57;;;;;;;;;;5028351;28;20025;-83
2021/11/25 13:43:58;;;;;;;57.47;23.27;;;;;;;;;;5033210;28;20021;-83
2021/11/25 13:46:53;;;;;;;59.47;23.97;;;;;;;;;;5032195;28;20492;-83
2021/11/25 13:49:18;;;;;;;58.07;23.37;;;;;;;;;;5015778;28;20033;-83
2021/11/25 13:51:45;;;;;;;66.90;24.10;;;;;;;;;;5034177;28;20059;-83
2021/11/25 13:54:10;;;;;;;70.60;26.43;;;;;;;;;;5032615;28;20432;-83
2021/11/25 13:56:36;;;;;;;66.30;27.33;;;;;;;;;;5034027;28;20025;-82
2021/11/25 13:59:02;;;;;;;73.10;26.90;;;;;;;;;;5033796;28;20025;-83
2021/11/25 14:01:29;;;;;;;64.07;25.97;;;;;;;;;;5032041;28;20075;-84
2021/11/25 14:03:54;;;;;;;70.33;24.97;;;;;;;;;;5032171;28;20036;-83
2021/11/25 14:06:21;;;;;;;71.87;26.03;;;;;;;;;;5032166;28;20013;-83
2021/11/25 14:08:46;;;;;;;65.67;25.40;;;;;;;;;;5033502;28;20532;-83
2021/11/25 14:11:12;;;;;;;55.70;22.80;;;;;;;;;;5032567;28;20061;-83
2021/11/25 14:13:37;;;;;;;71.97;26.30;;;;;;;;;;5042257;28;20103;-82
2021/11/25 14:16:16;;;;;;;61.13;24.27;;;;;;;;;;5032776;28;20025;-83
2021/11/25 14:18:42;;;;;;;61.90;24.03;;;;;;;;;;5032332;28;20044;-83
2021/11/25 14:21:07;;;;;;;64.07;24.57;;;;;;;;;;5032463;28;20072;-83
2021/11/25 14:23:32;;;;;;;62.50;23.93;;;;;;;;;;5031899;28;20025;-82
2021/11/25 14:26:14;;;;;;;69.47;25.27;;;;;;;;;;5032522;28;20475;-83
2021/11/25 14:31:24;;;;;;;62.67;24.47;;;;;;;;;;5033584;28;20037;-83
2021/11/25 14:33:51;;;;;;;70.27;25.10;;;;;;;;;;5032229;28;20013;-83